sensor_id;sensor_type;location;lat;lon;timestamp;temperature;humidity
15083;DHT22;7640;53.116;6.878;2022-12-07T00:01:46;4.30;99.90
15083;DHT22;7640;53.116;6.878;2022-12-07T00:04:17;4.20;99.90
15083;DHT22;7640;53.116;6.878;2022-12-07T00:06:47;4.20;99.90
15083;DHT22;7640;53.116;6.878;2022-12-07T00:09:19;4.20;99.90
15083;DHT22;7640;53.116;6.878;2022-12-07T00:11:50;4.20;99.90
15083;DHT22;7640;53.116;6.878;2022-12-07T00:14:19;4.00;99.90
15083;DHT22;7640;53.116;6.878;2022-12-07T00:16:49;4.20;99.90
15083;DHT22;7640;53.116;6.878;2022-12-07T00:19:19;4.30;99.90
15083;DHT22;7640;53.116;6.878;2022-12-07T00:21:47;4.30;99.90
15083;DHT22;7640;53.116;6.878;2022-12-07T00:24:15;4.40;99.90
15083;DHT22;7640;53.116;6.878;2022-12-07T00:26:44;4.40;99.90
15083;DHT22;7640;53.116;6.878;2022-12-07T00:29:16;4.50;99.90
15083;DHT22;7640;53.116;6.878;2022-12-07T00:31:47;4.50;99.90
15083;DHT22;7640;53.116;6.878;2022-12-07T00:34:17;4.50;99.90
15083;DHT22;7640;53.116;6.878;2022-12-07T00:36:46;4.50;99.90
15083;DHT22;7640;53.116;6.878;2022-12-07T00:39:16;4.50;99.90
15083;DHT22;7640;53.116;6.878;2022-12-07T00:41:44;4.40;99.90
15083;DHT22;7640;53.116;6.878;2022-12-07T00:44:14;4.40;99.90
15083;DHT22;7640;53.116;6.878;2022-12-07T00:46:42;4.40;99.90
15083;DHT22;7640;53.116;6.878;2022-12-07T00:49:12;4.40;99.90
15083;DHT22;7640;53.116;6.878;2022-12-07T00:51:40;4.30;99.90
15083;DHT22;7640;53.116;6.878;2022-12-07T00:54:08;4.30;99.90
15083;DHT22;7640;53.116;6.878;2022-12-07T00:56:36;4.30;99.90
15083;DHT22;7640;53.116;6.878;2022-12-07T00:59:05;4.30;99.90
15083;DHT22;7640;53.116;6.878;2022-12-07T01:01:36;4.30;99.90
15083;DHT22;7640;53.116;6.878;2022-12-07T01:04:04;4.30;99.90
15083;DHT22;7640;53.116;6.878;2022-12-07T01:06:34;4.30;99.90
15083;DHT22;7640;53.116;6.878;2022-12-07T01:09:03;4.30;99.90
15083;DHT22;7640;53.116;6.878;2022-12-07T01:11:32;4.40;99.90
15083;DHT22;7640;53.116;6.878;2022-12-07T01:14:01;4.40;99.90
15083;DHT22;7640;53.116;6.878;2022-12-07T01:16:30;4.40;99.90
15083;DHT22;7640;53.116;6.878;2022-12-07T01:19:02;4.40;99.90
15083;DHT22;7640;53.116;6.878;2022-12-07T01:21:33;4.50;99.90
15083;DHT22;7640;53.116;6.878;2022-12-07T01:24:06;4.50;99.90
15083;DHT22;7640;53.116;6.878;2022-12-07T01:26:36;4.50;99.90
15083;DHT22;7640;53.116;6.878;2022-12-07T01:29:05;4.50;99.90
15083;DHT22;7640;53.116;6.878;2022-12-07T01:31:33;4.50;99.90
15083;DHT22;7640;53.116;6.878;2022-12-07T01:34:03;4.50;99.90
15083;DHT22;7640;53.116;6.878;2022-12-07T01:36:32;4.50;99.90
15083;DHT22;7640;53.116;6.878;2022-12-07T01:39:04;4.50;99.90
15083;DHT22;7640;53.116;6.878;2022-12-07T01:41:36;4.50;99.90
15083;DHT22;7640;53.116;6.878;2022-12-07T01:44:19;4.40;99.90
15083;DHT22;7640;53.116;6.878;2022-12-07T01:46:50;4.40;99.90
15083;DHT22;7640;53.116;6.878;2022-12-07T01:49:31;4.40;99.90
15083;DHT22;7640;53.116;6.878;2022-12-07T01:52:08;4.30;99.90
15083;DHT22;7640;53.116;6.878;2022-12-07T01:54:46;4.30;99.90
15083;DHT22;7640;53.116;6.878;2022-12-07T01:57:16;4.30;99.90
15083;DHT22;7640;53.116;6.878;2022-12-07T01:59:45;4.30;99.90
15083;DHT22;7640;53.116;6.878;2022-12-07T02:02:19;4.30;99.90
15083;DHT22;7640;53.116;6.878;2022-12-07T02:04:51;4.30;99.90
15083;DHT22;7640;53.116;6.878;2022-12-07T02:07:20;4.30;99.90
15083;DHT22;7640;53.116;6.878;2022-12-07T02:09:49;4.50;99.90
15083;DHT22;7640;53.116;6.878;2022-12-07T02:12:18;4.40;99.90
15083;DHT22;7640;53.116;6.878;2022-12-07T02:14:47;4.50;99.90
15083;DHT22;7640;53.116;6.878;2022-12-07T02:17:21;4.50;99.90
15083;DHT22;7640;53.116;6.878;2022-12-07T02:20:21;4.60;99.90
15083;DHT22;7640;53.116;6.878;2022-12-07T02:26:53;4.70;99.90
15083;DHT22;7640;53.116;6.878;2022-12-07T02:29:33;4.70;99.90
15083;DHT22;7640;53.116;6.878;2022-12-07T02:32:07;4.70;99.90
15083;DHT22;7640;53.116;6.878;2022-12-07T02:34:46;4.50;99.90
15083;DHT22;7640;53.116;6.878;2022-12-07T02:37:28;4.60;99.90
15083;DHT22;7640;53.116;6.878;2022-12-07T02:40:08;4.50;99.90
15083;DHT22;7640;53.116;6.878;2022-12-07T02:42:43;4.50;99.90
15083;DHT22;7640;53.116;6.878;2022-12-07T02:45:18;4.40;99.90
15083;DHT22;7640;53.116;6.878;2022-12-07T02:47:51;4.40;99.90
15083;DHT22;7640;53.116;6.878;2022-12-07T02:50:21;4.30;99.90
15083;DHT22;7640;53.116;6.878;2022-12-07T02:52:50;4.20;99.90
15083;DHT22;7640;53.116;6.878;2022-12-07T02:55:21;4.20;99.90
15083;DHT22;7640;53.116;6.878;2022-12-07T02:58:14;4.20;99.90
15083;DHT22;7640;53.116;6.878;2022-12-07T03:01:00;4.20;99.90
15083;DHT22;7640;53.116;6.878;2022-12-07T03:03:36;4.10;99.90
15083;DHT22;7640;53.116;6.878;2022-12-07T03:06:12;4.10;99.90
15083;DHT22;7640;53.116;6.878;2022-12-07T03:08:52;4.10;99.90
15083;DHT22;7640;53.116;6.878;2022-12-07T03:11:27;4.00;99.90
15083;DHT22;7640;53.116;6.878;2022-12-07T03:14:02;4.10;99.90
15083;DHT22;7640;53.116;6.878;2022-12-07T03:16:39;4.10;99.90
15083;DHT22;7640;53.116;6.878;2022-12-07T03:19:13;4.10;99.90
15083;DHT22;7640;53.116;6.878;2022-12-07T03:21:47;4.10;99.90
15083;DHT22;7640;53.116;6.878;2022-12-07T03:24:21;4.10;99.90
15083;DHT22;7640;53.116;6.878;2022-12-07T03:26:55;4.10;99.90
15083;DHT22;7640;53.116;6.878;2022-12-07T03:29:30;4.20;99.90
15083;DHT22;7640;53.116;6.878;2022-12-07T03:32:06;4.10;99.90
15083;DHT22;7640;53.116;6.878;2022-12-07T03:34:38;4.20;99.90
15083;DHT22;7640;53.116;6.878;2022-12-07T03:37:14;4.10;99.90
15083;DHT22;7640;53.116;6.878;2022-12-07T03:39:49;4.20;99.90
15083;DHT22;7640;53.116;6.878;2022-12-07T03:42:24;4.20;99.90
15083;DHT22;7640;53.116;6.878;2022-12-07T03:44:53;4.20;99.90
15083;DHT22;7640;53.116;6.878;2022-12-07T03:47:28;4.20;99.90
15083;DHT22;7640;53.116;6.878;2022-12-07T03:50:00;4.20;99.90
15083;DHT22;7640;53.116;6.878;2022-12-07T03:52:33;4.30;99.90
15083;DHT22;7640;53.116;6.878;2022-12-07T03:55:08;4.30;99.90
15083;DHT22;7640;53.116;6.878;2022-12-07T03:57:40;4.30;99.90
15083;DHT22;7640;53.116;6.878;2022-12-07T04:00:11;4.40;99.90
15083;DHT22;7640;53.116;6.878;2022-12-07T04:02:42;4.30;99.90
15083;DHT22;7640;53.116;6.878;2022-12-07T04:05:11;4.40;99.90
15083;DHT22;7640;53.116;6.878;2022-12-07T04:07:40;4.30;99.90
15083;DHT22;7640;53.116;6.878;2022-12-07T04:10:10;4.30;99.90
15083;DHT22;7640;53.116;6.878;2022-12-07T04:12:38;4.30;99.90
15083;DHT22;7640;53.116;6.878;2022-12-07T04:15:08;4.40;99.90
15083;DHT22;7640;53.116;6.878;2022-12-07T04:17:36;4.40;99.90
15083;DHT22;7640;53.116;6.878;2022-12-07T04:20:08;4.40;99.90
15083;DHT22;7640;53.116;6.878;2022-12-07T04:22:37;4.40;99.90
15083;DHT22;7640;53.116;6.878;2022-12-07T04:25:06;4.40;99.90
15083;DHT22;7640;53.116;6.878;2022-12-07T04:27:34;4.40;99.90
15083;DHT22;7640;53.116;6.878;2022-12-07T04:30:03;4.40;99.90
15083;DHT22;7640;53.116;6.878;2022-12-07T04:32:32;4.30;99.90
15083;DHT22;7640;53.116;6.878;2022-12-07T04:35:00;4.30;99.90
15083;DHT22;7640;53.116;6.878;2022-12-07T04:37:30;4.30;99.90
15083;DHT22;7640;53.116;6.878;2022-12-07T04:39:59;4.20;99.90
15083;DHT22;7640;53.116;6.878;2022-12-07T04:42:27;4.20;99.90
15083;DHT22;7640;53.116;6.878;2022-12-07T04:44:55;4.10;99.90
15083;DHT22;7640;53.116;6.878;2022-12-07T04:47:24;4.20;99.90
15083;DHT22;7640;53.116;6.878;2022-12-07T04:49:52;4.10;99.90
15083;DHT22;7640;53.116;6.878;2022-12-07T04:52:21;4.20;99.90
15083;DHT22;7640;53.116;6.878;2022-12-07T04:54:50;4.20;99.90
15083;DHT22;7640;53.116;6.878;2022-12-07T04:57:18;4.20;99.90
15083;DHT22;7640;53.116;6.878;2022-12-07T04:59:47;4.30;99.90
15083;DHT22;7640;53.116;6.878;2022-12-07T05:02:15;4.30;99.90
15083;DHT22;7640;53.116;6.878;2022-12-07T05:04:43;4.30;99.90
15083;DHT22;7640;53.116;6.878;2022-12-07T05:07:11;4.30;99.90
15083;DHT22;7640;53.116;6.878;2022-12-07T05:09:40;4.30;99.90
15083;DHT22;7640;53.116;6.878;2022-12-07T05:12:09;4.40;99.90
15083;DHT22;7640;53.116;6.878;2022-12-07T05:14:37;4.40;99.90
15083;DHT22;7640;53.116;6.878;2022-12-07T05:17:06;4.50;99.90
15083;DHT22;7640;53.116;6.878;2022-12-07T05:19:34;4.40;99.90
15083;DHT22;7640;53.116;6.878;2022-12-07T05:22:02;4.40;99.90
15083;DHT22;7640;53.116;6.878;2022-12-07T05:24:30;4.40;99.90
15083;DHT22;7640;53.116;6.878;2022-12-07T05:26:59;4.30;99.90
15083;DHT22;7640;53.116;6.878;2022-12-07T05:29:28;4.30;99.90
15083;DHT22;7640;53.116;6.878;2022-12-07T05:31:57;4.30;99.90
15083;DHT22;7640;53.116;6.878;2022-12-07T05:34:25;4.20;99.90
15083;DHT22;7640;53.116;6.878;2022-12-07T05:36:53;4.20;99.90
15083;DHT22;7640;53.116;6.878;2022-12-07T05:39:22;4.10;99.90
15083;DHT22;7640;53.116;6.878;2022-12-07T05:41:50;4.00;99.90
15083;DHT22;7640;53.116;6.878;2022-12-07T05:44:37;4.00;99.90
15083;DHT22;7640;53.116;6.878;2022-12-07T05:47:05;3.90;99.90
15083;DHT22;7640;53.116;6.878;2022-12-07T05:49:34;3.90;99.90
15083;DHT22;7640;53.116;6.878;2022-12-07T05:52:03;3.80;99.90
15083;DHT22;7640;53.116;6.878;2022-12-07T05:54:32;3.80;99.90
15083;DHT22;7640;53.116;6.878;2022-12-07T05:57:00;3.80;99.90
15083;DHT22;7640;53.116;6.878;2022-12-07T05:59:29;3.70;99.90
15083;DHT22;7640;53.116;6.878;2022-12-07T06:01:58;3.70;99.90
15083;DHT22;7640;53.116;6.878;2022-12-07T06:04:30;3.60;99.90
15083;DHT22;7640;53.116;6.878;2022-12-07T06:07:01;3.60;99.90
15083;DHT22;7640;53.116;6.878;2022-12-07T06:09:30;3.50;99.90
15083;DHT22;7640;53.116;6.878;2022-12-07T06:11:59;3.50;99.90
15083;DHT22;7640;53.116;6.878;2022-12-07T06:14:44;3.50;99.90
15083;DHT22;7640;53.116;6.878;2022-12-07T06:17:14;3.50;99.90
15083;DHT22;7640;53.116;6.878;2022-12-07T06:19:43;3.50;99.90
15083;DHT22;7640;53.116;6.878;2022-12-07T06:22:12;3.50;99.90
15083;DHT22;7640;53.116;6.878;2022-12-07T06:24:42;3.50;99.90
15083;DHT22;7640;53.116;6.878;2022-12-07T06:27:11;3.50;99.90
15083;DHT22;7640;53.116;6.878;2022-12-07T06:29:39;3.50;99.90
15083;DHT22;7640;53.116;6.878;2022-12-07T06:32:07;3.50;99.90
15083;DHT22;7640;53.116;6.878;2022-12-07T06:34:37;3.50;99.90
15083;DHT22;7640;53.116;6.878;2022-12-07T06:37:06;3.50;99.90
15083;DHT22;7640;53.116;6.878;2022-12-07T06:39:34;3.60;99.90
15083;DHT22;7640;53.116;6.878;2022-12-07T06:42:03;3.40;99.90
15083;DHT22;7640;53.116;6.878;2022-12-07T06:44:31;3.40;99.90
15083;DHT22;7640;53.116;6.878;2022-12-07T06:47:00;3.40;99.90
15083;DHT22;7640;53.116;6.878;2022-12-07T06:49:50;3.50;99.90
15083;DHT22;7640;53.116;6.878;2022-12-07T06:52:18;3.50;99.90
15083;DHT22;7640;53.116;6.878;2022-12-07T06:54:46;3.50;99.90
15083;DHT22;7640;53.116;6.878;2022-12-07T06:57:15;3.60;99.90
15083;DHT22;7640;53.116;6.878;2022-12-07T06:59:43;3.60;99.90
15083;DHT22;7640;53.116;6.878;2022-12-07T07:02:11;3.60;99.90
15083;DHT22;7640;53.116;6.878;2022-12-07T07:04:39;3.50;99.90
15083;DHT22;7640;53.116;6.878;2022-12-07T07:07:09;3.50;99.90
15083;DHT22;7640;53.116;6.878;2022-12-07T07:09:37;3.50;99.90
15083;DHT22;7640;53.116;6.878;2022-12-07T07:12:06;3.50;99.90
15083;DHT22;7640;53.116;6.878;2022-12-07T07:14:34;3.40;99.90
15083;DHT22;7640;53.116;6.878;2022-12-07T07:17:03;3.40;99.90
15083;DHT22;7640;53.116;6.878;2022-12-07T07:19:31;3.30;99.90
15083;DHT22;7640;53.116;6.878;2022-12-07T07:21:59;3.30;99.90
15083;DHT22;7640;53.116;6.878;2022-12-07T07:24:29;3.30;99.90
15083;DHT22;7640;53.116;6.878;2022-12-07T07:26:57;3.30;99.90
15083;DHT22;7640;53.116;6.878;2022-12-07T07:29:26;3.30;99.90
15083;DHT22;7640;53.116;6.878;2022-12-07T07:31:54;3.40;99.90
15083;DHT22;7640;53.116;6.878;2022-12-07T07:34:27;3.40;99.90
15083;DHT22;7640;53.116;6.878;2022-12-07T07:36:55;3.50;99.90
15083;DHT22;7640;53.116;6.878;2022-12-07T07:39:24;3.50;99.90
15083;DHT22;7640;53.116;6.878;2022-12-07T07:41:53;3.60;99.90
15083;DHT22;7640;53.116;6.878;2022-12-07T07:44:21;3.60;99.90
15083;DHT22;7640;53.116;6.878;2022-12-07T07:46:50;3.70;99.90
15083;DHT22;7640;53.116;6.878;2022-12-07T07:49:18;3.80;99.90
15083;DHT22;7640;53.116;6.878;2022-12-07T07:51:46;3.80;99.90
15083;DHT22;7640;53.116;6.878;2022-12-07T07:54:15;3.90;99.90
15083;DHT22;7640;53.116;6.878;2022-12-07T07:56:44;3.90;99.90
15083;DHT22;7640;53.116;6.878;2022-12-07T07:59:14;4.00;99.90
15083;DHT22;7640;53.116;6.878;2022-12-07T08:01:42;4.00;99.90
15083;DHT22;7640;53.116;6.878;2022-12-07T08:04:10;4.10;99.90
15083;DHT22;7640;53.116;6.878;2022-12-07T08:06:39;4.10;99.90
15083;DHT22;7640;53.116;6.878;2022-12-07T08:09:08;4.10;99.90
15083;DHT22;7640;53.116;6.878;2022-12-07T08:11:37;4.20;99.90
15083;DHT22;7640;53.116;6.878;2022-12-07T08:14:05;4.20;99.90
15083;DHT22;7640;53.116;6.878;2022-12-07T08:16:35;4.20;99.90
15083;DHT22;7640;53.116;6.878;2022-12-07T08:19:04;4.30;99.90
15083;DHT22;7640;53.116;6.878;2022-12-07T08:21:33;4.30;99.90
15083;DHT22;7640;53.116;6.878;2022-12-07T08:24:01;4.20;99.90
15083;DHT22;7640;53.116;6.878;2022-12-07T08:26:30;4.20;99.90
15083;DHT22;7640;53.116;6.878;2022-12-07T08:28:58;4.20;99.90
15083;DHT22;7640;53.116;6.878;2022-12-07T08:31:26;4.20;99.90
15083;DHT22;7640;53.116;6.878;2022-12-07T08:33:57;4.20;99.90
15083;DHT22;7640;53.116;6.878;2022-12-07T08:36:25;4.20;99.90
15083;DHT22;7640;53.116;6.878;2022-12-07T08:38:54;4.10;99.90
15083;DHT22;7640;53.116;6.878;2022-12-07T08:41:42;4.10;99.90
15083;DHT22;7640;53.116;6.878;2022-12-07T08:44:10;4.10;99.90
15083;DHT22;7640;53.116;6.878;2022-12-07T08:46:41;4.10;99.90
15083;DHT22;7640;53.116;6.878;2022-12-07T08:49:16;4.10;99.90
15083;DHT22;7640;53.116;6.878;2022-12-07T08:51:46;4.10;99.90
15083;DHT22;7640;53.116;6.878;2022-12-07T08:54:16;4.10;99.90
15083;DHT22;7640;53.116;6.878;2022-12-07T08:56:46;4.10;99.90
15083;DHT22;7640;53.116;6.878;2022-12-07T08:59:23;4.10;99.90
15083;DHT22;7640;53.116;6.878;2022-12-07T09:01:51;4.10;99.90
15083;DHT22;7640;53.116;6.878;2022-12-07T09:04:21;4.10;99.90
15083;DHT22;7640;53.116;6.878;2022-12-07T09:06:49;4.10;99.90
15083;DHT22;7640;53.116;6.878;2022-12-07T09:09:18;4.10;99.90
15083;DHT22;7640;53.116;6.878;2022-12-07T09:11:46;4.10;99.90
15083;DHT22;7640;53.116;6.878;2022-12-07T09:14:14;4.10;99.90
15083;DHT22;7640;53.116;6.878;2022-12-07T09:16:43;4.20;99.90
15083;DHT22;7640;53.116;6.878;2022-12-07T09:19:12;4.20;99.90
15083;DHT22;7640;53.116;6.878;2022-12-07T09:21:42;4.20;99.90
15083;DHT22;7640;53.116;6.878;2022-12-07T09:24:11;4.30;99.90
15083;DHT22;7640;53.116;6.878;2022-12-07T09:26:39;4.40;99.90
15083;DHT22;7640;53.116;6.878;2022-12-07T09:29:08;4.80;99.90
15083;DHT22;7640;53.116;6.878;2022-12-07T09:31:37;4.80;99.90
15083;DHT22;7640;53.116;6.878;2022-12-07T09:34:05;4.90;99.90
15083;DHT22;7640;53.116;6.878;2022-12-07T09:36:34;5.00;99.90
15083;DHT22;7640;53.116;6.878;2022-12-07T09:39:04;5.00;99.90
15083;DHT22;7640;53.116;6.878;2022-12-07T09:41:32;5.00;99.90
15083;DHT22;7640;53.116;6.878;2022-12-07T09:44:04;5.00;99.90
15083;DHT22;7640;53.116;6.878;2022-12-07T09:46:36;5.00;99.90
15083;DHT22;7640;53.116;6.878;2022-12-07T09:49:07;5.10;99.90
15083;DHT22;7640;53.116;6.878;2022-12-07T09:51:38;5.10;99.90
15083;DHT22;7640;53.116;6.878;2022-12-07T09:54:12;5.20;99.90
15083;DHT22;7640;53.116;6.878;2022-12-07T09:56:41;5.20;99.90
15083;DHT22;7640;53.116;6.878;2022-12-07T09:59:15;5.30;99.90
15083;DHT22;7640;53.116;6.878;2022-12-07T10:01:47;5.40;99.90
15083;DHT22;7640;53.116;6.878;2022-12-07T10:04:18;5.50;99.90
15083;DHT22;7640;53.116;6.878;2022-12-07T10:06:49;5.70;99.90
15083;DHT22;7640;53.116;6.878;2022-12-07T10:09:21;5.70;99.90
15083;DHT22;7640;53.116;6.878;2022-12-07T10:12:04;5.70;99.90
15083;DHT22;7640;53.116;6.878;2022-12-07T10:14:35;5.70;99.90
15083;DHT22;7640;53.116;6.878;2022-12-07T10:17:37;5.70;99.90
15083;DHT22;7640;53.116;6.878;2022-12-07T10:20:26;5.70;99.90
15083;DHT22;7640;53.116;6.878;2022-12-07T10:23:01;5.80;99.90
15083;DHT22;7640;53.116;6.878;2022-12-07T10:25:34;5.70;99.90
15083;DHT22;7640;53.116;6.878;2022-12-07T10:28:14;5.80;99.90
15083;DHT22;7640;53.116;6.878;2022-12-07T10:30:54;5.80;99.90
15083;DHT22;7640;53.116;6.878;2022-12-07T10:33:34;5.80;99.90
15083;DHT22;7640;53.116;6.878;2022-12-07T10:36:18;5.80;99.90
15083;DHT22;7640;53.116;6.878;2022-12-07T10:38:50;5.90;99.90
15083;DHT22;7640;53.116;6.878;2022-12-07T10:41:20;5.90;99.90
15083;DHT22;7640;53.116;6.878;2022-12-07T10:43:54;5.90;99.90
15083;DHT22;7640;53.116;6.878;2022-12-07T10:46:46;6.00;99.90
15083;DHT22;7640;53.116;6.878;2022-12-07T10:49:46;5.90;99.90
15083;DHT22;7640;53.116;6.878;2022-12-07T10:55:47;6.00;99.90
15083;DHT22;7640;53.116;6.878;2022-12-07T10:58:36;6.00;99.90
15083;DHT22;7640;53.116;6.878;2022-12-07T11:01:22;6.10;99.90
15083;DHT22;7640;53.116;6.878;2022-12-07T11:04:07;6.10;99.90
15083;DHT22;7640;53.116;6.878;2022-12-07T11:06:46;6.20;99.90
15083;DHT22;7640;53.116;6.878;2022-12-07T11:09:36;6.20;99.90
15083;DHT22;7640;53.116;6.878;2022-12-07T11:12:46;6.20;99.90
15083;DHT22;7640;53.116;6.878;2022-12-07T11:15:33;6.20;99.90
15083;DHT22;7640;53.116;6.878;2022-12-07T11:18:15;6.20;99.90
15083;DHT22;7640;53.116;6.878;2022-12-07T11:20:54;6.30;99.90
15083;DHT22;7640;53.116;6.878;2022-12-07T11:23:31;6.40;99.90
15083;DHT22;7640;53.116;6.878;2022-12-07T11:26:13;6.40;99.90
15083;DHT22;7640;53.116;6.878;2022-12-07T11:29:04;6.50;99.90
15083;DHT22;7640;53.116;6.878;2022-12-07T11:31:58;6.60;99.90
15083;DHT22;7640;53.116;6.878;2022-12-07T11:34:39;6.60;99.90
15083;DHT22;7640;53.116;6.878;2022-12-07T11:37:15;6.60;99.90
15083;DHT22;7640;53.116;6.878;2022-12-07T11:39:49;6.50;99.90
15083;DHT22;7640;53.116;6.878;2022-12-07T11:42:22;6.60;99.90
15083;DHT22;7640;53.116;6.878;2022-12-07T11:44:55;6.50;99.90
15083;DHT22;7640;53.116;6.878;2022-12-07T11:47:33;6.50;99.90
15083;DHT22;7640;53.116;6.878;2022-12-07T11:50:14;6.50;99.90
15083;DHT22;7640;53.116;6.878;2022-12-07T11:52:53;6.50;99.90
15083;DHT22;7640;53.116;6.878;2022-12-07T11:55:27;6.60;99.90
15083;DHT22;7640;53.116;6.878;2022-12-07T11:58:04;6.60;99.90
15083;DHT22;7640;53.116;6.878;2022-12-07T12:00:36;6.70;99.90
15083;DHT22;7640;53.116;6.878;2022-12-07T12:03:11;6.70;99.90
15083;DHT22;7640;53.116;6.878;2022-12-07T12:05:43;6.70;99.90
15083;DHT22;7640;53.116;6.878;2022-12-07T12:08:16;6.70;99.90
15083;DHT22;7640;53.116;6.878;2022-12-07T12:11:19;6.70;99.90
15083;DHT22;7640;53.116;6.878;2022-12-07T12:14:22;6.70;99.90
15083;DHT22;7640;53.116;6.878;2022-12-07T12:20:20;6.50;99.90
15083;DHT22;7640;53.116;6.878;2022-12-07T12:22:54;6.50;99.90
15083;DHT22;7640;53.116;6.878;2022-12-07T12:25:26;6.40;99.90
15083;DHT22;7640;53.116;6.878;2022-12-07T12:27:58;6.30;99.90
15083;DHT22;7640;53.116;6.878;2022-12-07T12:30:33;6.20;99.90
15083;DHT22;7640;53.116;6.878;2022-12-07T12:33:06;6.20;99.90
15083;DHT22;7640;53.116;6.878;2022-12-07T12:35:43;6.10;99.90
15083;DHT22;7640;53.116;6.878;2022-12-07T12:38:27;6.10;99.90
15083;DHT22;7640;53.116;6.878;2022-12-07T12:41:00;6.00;99.90
15083;DHT22;7640;53.116;6.878;2022-12-07T12:43:57;5.90;99.90
15083;DHT22;7640;53.116;6.878;2022-12-07T12:46:38;5.90;99.90
15083;DHT22;7640;53.116;6.878;2022-12-07T12:49:43;5.80;99.90
15083;DHT22;7640;53.116;6.878;2022-12-07T12:52:53;5.80;99.90
15083;DHT22;7640;53.116;6.878;2022-12-07T12:58:49;5.90;99.90
15083;DHT22;7640;53.116;6.878;2022-12-07T13:01:40;6.00;99.90
15083;DHT22;7640;53.116;6.878;2022-12-07T13:04:34;6.20;99.90
15083;DHT22;7640;53.116;6.878;2022-12-07T13:07:54;6.50;99.90
15083;DHT22;7640;53.116;6.878;2022-12-07T13:10:37;6.80;99.90
15083;DHT22;7640;53.116;6.878;2022-12-07T13:13:33;7.00;99.90
15083;DHT22;7640;53.116;6.878;2022-12-07T13:19:53;7.00;99.90
15083;DHT22;7640;53.116;6.878;2022-12-07T13:22:56;6.90;99.90
15083;DHT22;7640;53.116;6.878;2022-12-07T13:25:38;6.80;99.90
15083;DHT22;7640;53.116;6.878;2022-12-07T13:28:16;6.70;99.90
15083;DHT22;7640;53.116;6.878;2022-12-07T13:30:52;6.60;99.90
15083;DHT22;7640;53.116;6.878;2022-12-07T13:33:27;6.60;99.90
15083;DHT22;7640;53.116;6.878;2022-12-07T13:35:56;6.60;99.90
15083;DHT22;7640;53.116;6.878;2022-12-07T13:38:30;6.50;99.90
15083;DHT22;7640;53.116;6.878;2022-12-07T13:41:11;6.50;99.90
15083;DHT22;7640;53.116;6.878;2022-12-07T13:43:46;6.40;99.90
15083;DHT22;7640;53.116;6.878;2022-12-07T13:46:18;6.40;99.90
15083;DHT22;7640;53.116;6.878;2022-12-07T13:48:50;6.40;99.90
15083;DHT22;7640;53.116;6.878;2022-12-07T13:51:21;6.30;99.90
15083;DHT22;7640;53.116;6.878;2022-12-07T13:53:53;6.30;99.90
15083;DHT22;7640;53.116;6.878;2022-12-07T13:56:28;6.20;99.90
15083;DHT22;7640;53.116;6.878;2022-12-07T13:59:00;6.30;99.90
15083;DHT22;7640;53.116;6.878;2022-12-07T14:01:31;6.20;99.90
15083;DHT22;7640;53.116;6.878;2022-12-07T14:04:18;6.20;99.90
15083;DHT22;7640;53.116;6.878;2022-12-07T14:06:49;6.10;99.90
15083;DHT22;7640;53.116;6.878;2022-12-07T14:09:21;6.00;99.90
15083;DHT22;7640;53.116;6.878;2022-12-07T14:11:52;6.20;99.90
15083;DHT22;7640;53.116;6.878;2022-12-07T14:14:24;5.90;99.90
15083;DHT22;7640;53.116;6.878;2022-12-07T14:17:17;5.80;99.90
15083;DHT22;7640;53.116;6.878;2022-12-07T14:19:49;5.60;99.90
15083;DHT22;7640;53.116;6.878;2022-12-07T14:22:25;5.60;99.90
15083;DHT22;7640;53.116;6.878;2022-12-07T14:25:19;5.40;99.90
15083;DHT22;7640;53.116;6.878;2022-12-07T14:27:51;5.40;99.90
15083;DHT22;7640;53.116;6.878;2022-12-07T14:30:24;5.30;99.90
15083;DHT22;7640;53.116;6.878;2022-12-07T14:32:57;5.20;99.90
15083;DHT22;7640;53.116;6.878;2022-12-07T14:35:28;5.10;99.90
15083;DHT22;7640;53.116;6.878;2022-12-07T14:37:57;5.00;99.90
15083;DHT22;7640;53.116;6.878;2022-12-07T14:40:28;5.00;99.90
15083;DHT22;7640;53.116;6.878;2022-12-07T14:43:00;4.90;99.90
15083;DHT22;7640;53.116;6.878;2022-12-07T14:45:30;4.80;99.90
15083;DHT22;7640;53.116;6.878;2022-12-07T14:47:59;4.70;99.90
15083;DHT22;7640;53.116;6.878;2022-12-07T14:50:51;4.60;99.90
15083;DHT22;7640;53.116;6.878;2022-12-07T14:53:45;4.60;99.90
15083;DHT22;7640;53.116;6.878;2022-12-07T14:56:24;4.50;99.90
15083;DHT22;7640;53.116;6.878;2022-12-07T14:58:52;4.50;99.90
15083;DHT22;7640;53.116;6.878;2022-12-07T15:01:21;4.50;99.90
15083;DHT22;7640;53.116;6.878;2022-12-07T15:03:50;4.50;99.90
15083;DHT22;7640;53.116;6.878;2022-12-07T15:06:18;4.50;99.90
15083;DHT22;7640;53.116;6.878;2022-12-07T15:08:47;4.50;99.90
15083;DHT22;7640;53.116;6.878;2022-12-07T15:11:16;4.50;99.90
15083;DHT22;7640;53.116;6.878;2022-12-07T15:13:47;4.50;99.90
15083;DHT22;7640;53.116;6.878;2022-12-07T15:16:34;4.50;99.90
15083;DHT22;7640;53.116;6.878;2022-12-07T15:19:23;4.50;99.90
15083;DHT22;7640;53.116;6.878;2022-12-07T15:21:56;4.50;99.90
15083;DHT22;7640;53.116;6.878;2022-12-07T15:24:27;4.50;99.90
15083;DHT22;7640;53.116;6.878;2022-12-07T15:26:55;4.50;99.90
15083;DHT22;7640;53.116;6.878;2022-12-07T15:29:25;4.50;99.90
15083;DHT22;7640;53.116;6.878;2022-12-07T15:31:54;4.60;99.90
15083;DHT22;7640;53.116;6.878;2022-12-07T15:34:25;4.50;99.90
15083;DHT22;7640;53.116;6.878;2022-12-07T15:37:05;4.50;99.90
15083;DHT22;7640;53.116;6.878;2022-12-07T15:39:33;4.50;99.90
15083;DHT22;7640;53.116;6.878;2022-12-07T15:42:03;4.50;99.90
15083;DHT22;7640;53.116;6.878;2022-12-07T15:44:33;4.50;99.90
15083;DHT22;7640;53.116;6.878;2022-12-07T15:47:18;4.50;99.90
15083;DHT22;7640;53.116;6.878;2022-12-07T15:49:47;4.50;99.90
15083;DHT22;7640;53.116;6.878;2022-12-07T15:52:16;4.50;99.90
15083;DHT22;7640;53.116;6.878;2022-12-07T15:54:45;4.50;99.90
15083;DHT22;7640;53.116;6.878;2022-12-07T15:57:14;4.50;99.90
15083;DHT22;7640;53.116;6.878;2022-12-07T15:59:52;4.40;99.90
15083;DHT22;7640;53.116;6.878;2022-12-07T16:02:20;4.40;99.90
15083;DHT22;7640;53.116;6.878;2022-12-07T16:04:50;4.40;99.90
15083;DHT22;7640;53.116;6.878;2022-12-07T16:07:19;4.40;99.90
15083;DHT22;7640;53.116;6.878;2022-12-07T16:09:48;4.40;99.90
15083;DHT22;7640;53.116;6.878;2022-12-07T16:12:17;4.40;99.90
15083;DHT22;7640;53.116;6.878;2022-12-07T16:14:45;4.40;99.90
15083;DHT22;7640;53.116;6.878;2022-12-07T16:17:15;4.40;99.90
15083;DHT22;7640;53.116;6.878;2022-12-07T16:19:43;4.40;99.90
15083;DHT22;7640;53.116;6.878;2022-12-07T16:22:11;4.40;99.90
15083;DHT22;7640;53.116;6.878;2022-12-07T16:24:40;4.30;99.90
15083;DHT22;7640;53.116;6.878;2022-12-07T16:27:08;4.30;99.90
15083;DHT22;7640;53.116;6.878;2022-12-07T16:29:37;4.30;99.90
15083;DHT22;7640;53.116;6.878;2022-12-07T16:32:05;4.30;99.90
15083;DHT22;7640;53.116;6.878;2022-12-07T16:34:35;4.20;99.90
15083;DHT22;7640;53.116;6.878;2022-12-07T16:37:03;4.20;99.90
15083;DHT22;7640;53.116;6.878;2022-12-07T16:39:33;4.20;99.90
15083;DHT22;7640;53.116;6.878;2022-12-07T16:42:02;4.20;99.90
15083;DHT22;7640;53.116;6.878;2022-12-07T16:44:32;4.10;99.90
15083;DHT22;7640;53.116;6.878;2022-12-07T16:47:00;4.20;99.90
15083;DHT22;7640;53.116;6.878;2022-12-07T16:49:29;4.20;99.90
15083;DHT22;7640;53.116;6.878;2022-12-07T16:51:58;4.20;99.90
15083;DHT22;7640;53.116;6.878;2022-12-07T16:54:47;4.20;99.90
15083;DHT22;7640;53.116;6.878;2022-12-07T16:57:17;4.20;99.90
15083;DHT22;7640;53.116;6.878;2022-12-07T16:59:49;4.20;99.90